Time,TemperatureF,DewpointF,PressureIn,WindDirection,WindDirectionDegrees,WindSpeedMPH,WindSpeedGustMPH,Humidity,HourlyPrecipIn,Conditions,Clouds,dailyrainin,SolarRadiationWatts/m^2,SoftwareType,DateUTC
2013-02-19 00:01:00,52.0,34.0,-100.00,WNW,300,0.0,8.0,50,0.00,,,0.00,0.000000,,2013-02-19 07:01:00,
2013-02-19 00:42:00,56.0,37.0,-100.00,ENE,73,2.0,8.0,49,0.00,,,0.00,0.000000,,2013-02-19 07:42:00,
2013-02-19 00:52:00,56.0,37.0,-100.00,ENE,73,2.0,8.0,49,0.00,,,0.00,0.000000,,2013-02-19 07:52:00,
2013-02-19 01:01:00,56.0,37.0,-100.00,ENE,73,2.0,8.0,49,0.00,,,0.00,0.000000,,2013-02-19 08:01:00,
2013-02-19 01:32:00,54.0,38.0,-100.00,ESE,109,0.0,7.0,54,0.00,,,0.00,0.000000,,2013-02-19 08:32:00,
2013-02-19 01:42:00,54.0,38.0,-100.00,ESE,109,0.0,7.0,54,0.00,,,0.00,0.000000,,2013-02-19 08:42:00,
2013-02-19 01:52:00,54.0,38.0,-100.00,ESE,109,0.0,7.0,54,0.00,,,0.00,0.000000,,2013-02-19 08:52:00,
2013-02-19 02:01:00,54.0,38.0,-100.00,ESE,109,0.0,7.0,54,0.00,,,0.00,0.000000,,2013-02-19 09:01:00,
2013-02-19 02:32:00,50.0,34.0,-100.00,South,183,0.0,3.0,55,0.00,,,0.00,0.000000,,2013-02-19 09:32:00,
2013-02-19 02:42:00,50.0,34.0,-100.00,South,183,0.0,3.0,55,0.00,,,0.00,0.000000,,2013-02-19 09:42:00,
2013-02-19 02:53:00,50.0,34.0,-100.00,South,183,0.0,3.0,55,0.00,,,0.00,0.000000,,2013-02-19 09:53:00,
2013-02-19 03:01:00,50.0,34.0,-100.00,South,183,0.0,3.0,55,0.00,,,0.00,0.000000,,2013-02-19 10:01:00,
2013-02-19 03:32:00,50.0,37.0,-100.00,ESE,104,1.0,4.0,61,0.00,,,0.00,0.000000,,2013-02-19 10:32:00,
2013-02-19 03:42:00,50.0,37.0,-100.00,ESE,104,1.0,4.0,61,0.00,,,0.00,0.000000,,2013-02-19 10:42:00,
2013-02-19 03:52:00,50.0,37.0,-100.00,ESE,104,1.0,4.0,61,0.00,,,0.00,0.000000,,2013-02-19 10:52:00,
2013-02-19 04:01:00,50.0,37.0,-100.00,ESE,104,1.0,4.0,61,0.00,,,0.00,0.000000,,2013-02-19 11:01:00,
2013-02-19 04:42:00,49.0,36.0,-100.00,ENE,75,0.0,3.0,60,0.00,,,0.00,0.000000,,2013-02-19 11:42:00,
2013-02-19 04:52:00,49.0,36.0,-100.00,ENE,75,0.0,3.0,60,0.00,,,0.00,0.000000,,2013-02-19 11:52:00,
2013-02-19 05:01:00,49.0,36.0,-100.00,ENE,75,0.0,3.0,60,0.00,,,0.00,0.000000,,2013-02-19 12:01:00,
2013-02-19 05:32:00,50.0,43.0,-100.00,NNE,25,0.0,3.0,77,0.00,,,0.00,0.000000,,2013-02-19 12:32:00,
2013-02-19 05:42:00,50.0,43.0,-100.00,NNE,25,0.0,3.0,77,0.00,,,0.00,0.000000,,2013-02-19 12:42:00,
2013-02-19 05:52:00,50.0,43.0,-100.00,NNE,25,0.0,3.0,77,0.00,,,0.00,0.000000,,2013-02-19 12:52:00,
2013-02-19 06:01:00,50.0,43.0,-100.00,NNE,25,0.0,3.0,77,0.00,,,0.00,0.000000,,2013-02-19 13:01:00,
2013-02-19 06:32:00,48.0,44.0,-100.00,ESE,118,0.0,5.0,86,0.00,,,0.00,0.000000,,2013-02-19 13:32:00,
2013-02-19 06:42:00,48.0,44.0,-100.00,ESE,118,0.0,5.0,86,0.00,,,0.00,0.000000,,2013-02-19 13:42:00,
2013-02-19 06:52:00,48.0,44.0,-100.00,ESE,118,0.0,5.0,86,0.00,,,0.00,0.000000,,2013-02-19 13:52:00,
2013-02-19 07:01:00,48.0,44.0,-100.00,ESE,118,0.0,5.0,86,0.00,,,0.00,0.000000,,2013-02-19 14:01:00,
2013-02-19 07:33:00,43.0,41.0,-100.00,WSW,244,0.0,5.0,92,0.00,,,0.00,0.000000,,2013-02-19 14:33:00,
2013-02-19 07:42:00,43.0,41.0,-100.00,WSW,244,0.0,5.0,92,0.00,,,0.00,0.000000,,2013-02-19 14:42:00,
2013-02-19 07:52:00,43.0,41.0,-100.00,WSW,244,0.0,5.0,92,0.00,,,0.00,0.000000,,2013-02-19 14:52:00,
2013-02-19 08:01:00,43.0,41.0,-100.00,WSW,244,0.0,5.0,92,0.00,,,0.00,0.000000,,2013-02-19 15:01:00,
2013-02-19 08:42:00,43.0,30.0,-100.00,NNW,334,2.0,3.0,60,0.00,,,0.00,0.000000,,2013-02-19 15:42:00,
2013-02-19 08:52:00,43.0,30.0,-100.00,NNW,334,2.0,3.0,60,0.00,,,0.00,0.000000,,2013-02-19 15:52:00,
2013-02-19 09:01:00,43.0,30.0,-100.00,NNW,334,2.0,3.0,60,0.00,,,0.00,0.000000,,2013-02-19 16:01:00,
2013-02-19 10:32:00,56.0,32.0,-100.00,NW,309,10.0,10.0,40,-99.99,,,0.00,301.000000,,2013-02-19 17:32:00,
2013-02-19 10:42:00,56.0,32.0,-100.00,NW,309,10.0,10.0,40,-99.99,,,0.00,301.000000,,2013-02-19 17:42:00,
2013-02-19 10:52:00,56.0,32.0,-100.00,NW,309,10.0,10.0,40,-99.99,,,0.00,301.000000,,2013-02-19 17:52:00,
2013-02-19 11:01:00,56.0,32.0,-100.00,NW,309,10.0,10.0,40,-99.99,,,0.00,301.000000,,2013-02-19 18:01:00,
2013-02-19 11:42:00,58.0,29.0,-100.00,NW,306,12.0,18.0,33,0.00,,,0.00,551.000000,,2013-02-19 18:42:00,
2013-02-19 11:52:00,58.0,29.0,-100.00,NW,306,12.0,18.0,33,0.00,,,0.00,551.000000,,2013-02-19 18:52:00,
2013-02-19 12:01:00,58.0,29.0,-100.00,NW,306,12.0,18.0,33,0.00,,,0.00,551.000000,,2013-02-19 19:01:00,
2013-02-19 12:32:00,63.0,30.0,-100.00,WNW,294,12.0,24.0,29,0.00,,,0.00,722.000000,,2013-02-19 19:32:00,
2013-02-19 12:42:00,63.0,30.0,-100.00,WNW,294,12.0,24.0,29,0.00,,,0.00,722.000000,,2013-02-19 19:42:00,
2013-02-19 12:52:00,63.0,30.0,-100.00,WNW,294,12.0,24.0,29,0.00,,,0.00,722.000000,,2013-02-19 19:52:00,
2013-02-19 13:01:00,63.0,30.0,-100.00,WNW,294,12.0,24.0,29,0.00,,,0.00,722.000000,,2013-02-19 20:01:00,
2013-02-19 13:32:00,66.0,32.0,-100.00,WNW,301,10.0,21.0,28,0.00,,,-99.99,852.000000,,2013-02-19 20:32:00,
2013-02-19 13:42:00,66.0,32.0,-100.00,WNW,301,10.0,21.0,28,0.00,,,-99.99,852.000000,,2013-02-19 20:42:00,
2013-02-19 13:52:00,66.0,32.0,-100.00,WNW,301,10.0,21.0,28,0.00,,,-99.99,852.000000,,2013-02-19 20:52:00,
2013-02-19 14:01:00,66.0,32.0,-100.00,WNW,301,10.0,21.0,28,0.00,,,-99.99,852.000000,,2013-02-19 21:01:00,
2013-02-19 14:42:00,68.0,33.0,-100.00,West,263,11.0,20.0,27,0.00,,,0.00,903.000000,,2013-02-19 21:42:00,
2013-02-19 14:52:00,68.0,33.0,-100.00,West,263,11.0,20.0,27,0.00,,,0.00,903.000000,,2013-02-19 21:52:00,
2013-02-19 15:01:00,68.0,33.0,-100.00,West,263,11.0,20.0,27,0.00,,,0.00,903.000000,,2013-02-19 22:01:00,
2013-02-19 15:32:00,68.0,36.0,-100.00,WSW,240,11.0,19.0,31,0.00,,,-99.99,798.000000,,2013-02-19 22:32:00,
2013-02-19 15:42:00,68.0,36.0,-100.00,WSW,240,11.0,19.0,31,0.00,,,-99.99,798.000000,,2013-02-19 22:42:00,
2013-02-19 15:52:00,68.0,36.0,-100.00,WSW,240,11.0,19.0,31,0.00,,,-99.99,798.000000,,2013-02-19 22:52:00,
2013-02-19 16:01:00,68.0,36.0,-100.00,WSW,240,11.0,19.0,31,0.00,,,-99.99,798.000000,,2013-02-19 23:01:00,
2013-02-19 16:32:00,66.0,33.0,-100.00,West,268,12.0,17.0,29,0.00,,,-99.99,699.000000,,2013-02-19 23:32:00,
2013-02-19 16:42:00,66.0,33.0,-100.00,West,268,12.0,17.0,29,0.00,,,-99.99,699.000000,,2013-02-19 23:42:00,
2013-02-19 16:52:00,66.0,33.0,-100.00,West,268,12.0,17.0,29,0.00,,,-99.99,699.000000,,2013-02-19 23:52:00,
2013-02-19 17:01:00,66.0,33.0,-100.00,West,268,12.0,17.0,29,0.00,,,-99.99,699.000000,,2013-02-20 00:01:00,
2013-02-19 17:42:00,66.0,36.0,-100.00,WNW,291,13.0,23.0,33,0.00,,,0.00,560.000000,,2013-02-20 00:42:00,
2013-02-19 17:52:00,66.0,36.0,-100.00,WNW,291,13.0,23.0,33,0.00,,,0.00,560.000000,,2013-02-20 00:52:00,
2013-02-19 18:02:00,66.0,36.0,-100.00,WNW,291,13.0,23.0,33,0.00,,,0.00,560.000000,,2013-02-20 01:02:00,
2013-02-19 18:32:00,61.0,35.0,-100.00,WNW,284,10.0,21.0,37,0.00,,,0.00,218.000000,,2013-02-20 01:32:00,
2013-02-19 18:42:00,61.0,35.0,-100.00,WNW,284,10.0,21.0,37,0.00,,,0.00,218.000000,,2013-02-20 01:42:00,
2013-02-19 18:52:00,61.0,35.0,-100.00,WNW,284,10.0,21.0,37,0.00,,,0.00,218.000000,,2013-02-20 01:52:00,
2013-02-19 19:01:00,61.0,35.0,-100.00,WNW,284,10.0,21.0,37,0.00,,,0.00,218.000000,,2013-02-20 02:01:00,
2013-02-19 19:42:00,61.0,36.0,-100.00,WNW,292,10.0,19.0,40,0.00,,,0.00,72.000000,,2013-02-20 02:42:00,
2013-02-19 19:52:00,61.0,36.0,-100.00,WNW,292,10.0,19.0,40,0.00,,,0.00,72.000000,,2013-02-20 02:52:00,
2013-02-19 20:01:00,61.0,36.0,-100.00,WNW,292,10.0,19.0,40,0.00,,,0.00,72.000000,,2013-02-20 03:01:00,
2013-02-19 20:32:00,60.0,41.0,-100.00,WNW,290,11.0,18.0,49,0.00,,,0.00,3.000000,,2013-02-20 03:32:00,
2013-02-19 20:42:00,60.0,41.0,-100.00,WNW,290,11.0,18.0,49,0.00,,,0.00,3.000000,,2013-02-20 03:42:00,
2013-02-19 20:52:00,60.0,41.0,-100.00,WNW,290,11.0,18.0,49,0.00,,,0.00,3.000000,,2013-02-20 03:52:00,
2013-02-19 21:01:00,60.0,41.0,-100.00,WNW,290,11.0,18.0,49,0.00,,,0.00,3.000000,,2013-02-20 04:01:00,
2013-02-19 21:42:00,56.0,39.0,-100.00,WNW,289,11.0,22.0,52,0.00,,,0.00,0.000000,,2013-02-20 04:42:00,
2013-02-19 21:52:00,56.0,39.0,-100.00,WNW,289,11.0,22.0,52,0.00,,,0.00,0.000000,,2013-02-20 04:52:00,
2013-02-19 22:02:00,56.0,39.0,-100.00,WNW,289,11.0,22.0,52,0.00,,,0.00,0.000000,,2013-02-20 05:02:00,
2013-02-19 22:43:00,54.0,32.0,-100.00,West,273,17.0,19.0,43,0.00,,,0.00,0.000000,,2013-02-20 05:43:00,
2013-02-19 22:52:00,54.0,32.0,-100.00,West,273,17.0,19.0,43,0.00,,,0.00,0.000000,,2013-02-20 05:52:00,
2013-02-19 23:01:00,54.0,32.0,-100.00,West,273,17.0,19.0,43,0.00,,,0.00,0.000000,,2013-02-20 06:01:00,
2013-02-19 23:42:00,56.0,33.0,-100.00,NW,314,8.0,25.0,42,0.00,,,0.00,0.000000,,2013-02-20 06:42:00,
2013-02-19 23:52:00,56.0,33.0,-100.00,NW,314,8.0,25.0,42,0.00,,,0.00,0.000000,,2013-02-20 06:52:00,